Time;durP1;ratioP1;P1;durP2;ratioP2;P2;SDS_P1;SDS_P2;PMS_P1;PMS_P2;Temp;Humidity;BMP_temperature;BMP_pressure;BME280_temperature;BME280_humidity;BME280_pressure;Samples;Min_cycle;Max_cycle;Signal;HPM_P1;HPM_P2
2021/08/03 00:01:17;;;;;;;4.05;2.03;;;11.90;99.90;;;;;;5109382;28;20039;-50
2021/08/03 00:03:59;;;;;;;3.97;2.00;;;11.90;99.90;;;;;;5109047;28;20510;-44
2021/08/03 00:06:28;;;;;;;2.97;2.10;;;11.90;99.90;;;;;;5109922;28;20053;-49
2021/08/03 00:09:03;;;;;;;4.03;2.35;;;11.90;99.90;;;;;;5113975;27;20047;-44
2021/08/03 00:11:34;;;;;;;4.50;2.83;;;11.90;99.90;;;;;;5105054;28;20054;-45
2021/08/03 00:14:04;;;;;;;5.38;2.60;;;11.90;99.90;;;;;;5108210;28;20105;-45
2021/08/03 00:16:39;;;;;;;3.17;2.35;;;11.80;99.90;;;;;;5111685;28;20131;-46
2021/08/03 00:19:06;;;;;;;3.28;1.55;;;11.80;99.90;;;;;;5106469;28;20126;-45
2021/08/03 00:21:33;;;;;;;1.23;1.10;;;11.80;99.90;;;;;;5107176;28;20404;-45
2021/08/03 00:24:00;;;;;;;3.47;1.00;;;11.70;99.90;;;;;;5111577;28;20054;-49
2021/08/03 00:26:29;;;;;;;1.27;0.95;;;11.70;99.90;;;;;;5093856;28;20091;-45
2021/08/03 00:28:56;;;;;;;1.95;1.40;;;11.70;99.90;;;;;;5107514;28;20047;-44
2021/08/03 00:31:28;;;;;;;2.03;1.30;;;11.60;99.90;;;;;;5107596;28;20464;-46
2021/08/03 00:33:57;;;;;;;2.70;1.48;;;11.60;99.90;;;;;;5104890;28;20048;-47
2021/08/03 00:36:29;;;;;;;2.38;1.55;;;11.60;99.90;;;;;;5089507;28;20052;-44
2021/08/03 00:38:59;;;;;;;2.53;1.27;;;11.60;99.90;;;;;;5073679;28;20093;-48
2021/08/03 00:42:00;;;;;;;2.42;1.50;;;11.60;99.90;;;;;;5089677;28;20559;-48
2021/08/03 00:44:51;;;;;;;2.15;1.75;;;11.60;99.90;;;;;;4988761;28;20056;-46
2021/08/03 00:47:25;;;;;;;3.33;1.60;;;11.60;99.90;;;;;;4991064;28;20104;-46
2021/08/03 00:49:58;;;;;;;3.67;1.98;;;11.60;99.90;;;;;;4989066;28;20056;-51
2021/08/03 00:52:26;;;;;;;3.83;1.83;;;11.60;99.90;;;;;;5004809;28;20053;-45
2021/08/03 00:54:55;;;;;;;2.72;1.85;;;11.60;99.90;;;;;;5008202;28;20145;-50
2021/08/03 00:57:25;;;;;;;3.23;1.83;;;11.60;99.90;;;;;;4989199;28;20541;-46
2021/08/03 00:59:56;;;;;;;2.55;1.65;;;11.60;99.90;;;;;;5005111;28;20308;-45
2021/08/03 01:02:30;;;;;;;3.22;2.22;;;11.60;99.90;;;;;;5005275;28;20583;-49
2021/08/03 01:05:00;;;;;;;3.67;1.88;;;11.70;99.90;;;;;;4989028;28;20417;-47
2021/08/03 01:07:37;;;;;;;2.90;2.03;;;11.60;99.90;;;;;;5004099;28;20053;-45
2021/08/03 01:10:16;;;;;;;2.85;1.95;;;11.70;99.90;;;;;;4989088;28;20104;-46
2021/08/03 01:13:16;;;;;;;4.47;2.17;;;11.70;99.90;;;;;;5012244;28;20486;-47
2021/08/03 01:15:56;;;;;;;2.58;1.80;;;11.70;99.90;;;;;;4959659;28;20117;-47
2021/08/03 01:18:38;;;;;;;5.05;2.15;;;11.70;99.90;;;;;;4985387;28;20150;-45
2021/08/03 01:21:12;;;;;;;3.10;2.15;;;11.70;99.90;;;;;;4990875;28;20421;-47
2021/08/03 01:24:26;;;;;;;9.85;2.42;;;11.70;99.90;;;;;;5011790;28;20053;-50
2021/08/03 01:27:24;;;;;;;2.47;1.95;;;11.70;99.90;;;;;;4969695;28;20055;-46
2021/08/03 01:29:53;;;;;;;4.45;2.22;;;11.60;99.90;;;;;;4950709;29;20090;-48
2021/08/03 01:32:33;;;;;;;4.85;2.70;;;11.60;99.90;;;;;;4935970;28;20220;-49
2021/08/03 01:35:04;;;;;;;2.75;2.13;;;11.60;99.90;;;;;;4955370;28;20074;-49
2021/08/03 01:37:34;;;;;;;4.22;2.67;;;11.50;99.90;;;;;;4963095;28;20058;-47
2021/08/03 01:40:08;;;;;;;3.13;2.40;;;11.50;99.90;;;;;;4946594;28;20755;-50
2021/08/03 01:42:53;;;;;;;5.50;2.45;;;11.50;99.90;;;;;;4959815;28;20063;-47
2021/08/03 01:45:19;;;;;;;4.30;2.30;;;11.40;99.90;;;;;;4946431;28;20048;-50
2021/08/03 01:47:50;;;;;;;3.97;2.20;;;11.40;99.90;;;;;;4935714;28;20571;-46
2021/08/03 01:50:21;;;;;;;3.05;2.20;;;11.40;99.90;;;;;;4946491;28;20055;-49
2021/08/03 01:52:56;;;;;;;4.40;3.05;;;11.40;99.90;;;;;;4975782;28;20065;-47
2021/08/03 01:55:27;;;;;;;6.60;2.22;;;11.30;99.90;;;;;;4980861;28;20198;-46
2021/08/03 01:57:59;;;;;;;3.80;2.00;;;11.30;99.90;;;;;;4987970;28;20062;-45
2021/08/03 02:00:38;;;;;;;1.85;1.17;;;11.20;99.90;;;;;;5011463;28;20061;-47
2021/08/03 02:03:14;;;;;;;2.67;1.23;;;11.10;99.90;;;;;;5011366;28;20049;-48
2021/08/03 02:05:44;;;;;;;4.03;1.80;;;11.00;99.90;;;;;;5037408;28;20049;-50
2021/08/03 02:08:20;;;;;;;3.22;1.58;;;11.00;99.90;;;;;;5114861;28;20173;-47
2021/08/03 02:10:55;;;;;;;2.13;1.50;;;11.00;99.90;;;;;;5095807;28;20427;-47
2021/08/03 02:13:23;;;;;;;3.00;1.55;;;10.90;99.90;;;;;;5111171;28;20138;-48
2021/08/03 02:15:52;;;;;;;3.38;1.60;;;10.90;99.90;;;;;;5091566;28;20528;-50
2021/08/03 02:18:25;;;;;;;3.03;1.40;;;10.90;99.90;;;;;;5092067;28;20054;-50
2021/08/03 02:21:00;;;;;;;3.77;2.07;;;10.90;99.90;;;;;;5110519;28;20131;-46
2021/08/03 02:23:35;;;;;;;3.13;1.80;;;10.90;99.90;;;;;;5109038;28;20051;-46
2021/08/03 02:26:06;;;;;;;2.25;1.80;;;10.80;99.90;;;;;;5097777;28;20412;-48
2021/08/03 02:28:35;;;;;;;2.33;1.55;;;10.70;99.90;;;;;;5096090;28;20039;-48
2021/08/03 02:31:09;;;;;;;1.75;1.35;;;10.70;99.90;;;;;;5091378;28;20052;-46
2021/08/03 02:33:44;;;;;;;2.95;1.60;;;10.70;99.90;;;;;;5091393;28;20439;-49
2021/08/03 02:36:16;;;;;;;3.67;1.67;;;10.70;99.90;;;;;;5095654;28;20555;-48
2021/08/03 02:38:50;;;;;;;2.97;1.60;;;10.70;99.90;;;;;;5112979;28;20480;-47
2021/08/03 02:41:26;;;;;;;3.90;1.90;;;10.70;99.90;;;;;;5095244;28;20682;-47
2021/08/03 02:43:54;;;;;;;3.78;2.00;;;10.70;99.90;;;;;;5084185;28;20130;-50
2021/08/03 02:46:24;;;;;;;3.42;1.83;;;10.70;99.90;;;;;;5070080;28;20151;-46
2021/08/03 02:49:04;;;;;;;7.05;2.15;;;10.70;99.90;;;;;;5089122;28;20051;-48
2021/08/03 02:51:35;;;;;;;2.20;1.70;;;10.70;99.90;;;;;;5088540;28;20056;-49
2021/08/03 02:54:19;;;;;;;3.35;2.00;;;10.70;99.90;;;;;;5089534;28;20101;-49
2021/08/03 02:56:48;;;;;;;3.08;1.98;;;10.70;99.90;;;;;;5070675;28;20093;-49
2021/08/03 02:59:16;;;;;;;5.38;2.65;;;10.60;99.90;;;;;;5087539;28;20544;-50
2021/08/03 03:01:46;;;;;;;2.95;1.92;;;10.70;99.90;;;;;;5087007;28;20125;-46
2021/08/03 03:04:24;;;;;;;2.67;1.80;;;10.70;99.90;;;;;;5087357;28;20074;-45
2021/08/03 03:07:02;;;;;;;4.03;2.42;;;10.70;99.90;;;;;;5087431;28;20141;-50
2021/08/03 03:09:35;;;;;;;5.40;2.25;;;10.70;99.90;;;;;;5088441;28;20063;-46
2021/08/03 03:12:08;;;;;;;4.22;2.20;;;10.80;99.90;;;;;;5087264;28;20055;-47
2021/08/03 03:14:37;;;;;;;4.22;2.50;;;10.80;99.90;;;;;;5087853;28;20132;-46
2021/08/03 03:17:09;;;;;;;4.93;2.45;;;10.90;99.90;;;;;;5087063;28;20087;-46
2021/08/03 03:19:37;;;;;;;4.05;2.10;;;10.90;99.90;;;;;;5088566;28;20048;-47
2021/08/03 03:22:06;;;;;;;3.97;2.13;;;11.00;99.90;;;;;;5067514;28;20075;-48
2021/08/03 03:24:39;;;;;;;2.55;1.55;;;11.00;99.90;;;;;;5072695;28;20048;-48
2021/08/03 03:27:05;;;;;;;4.45;2.30;;;11.00;99.90;;;;;;5092677;28;20049;-48
2021/08/03 03:29:36;;;;;;;2.45;1.80;;;11.00;99.90;;;;;;5088999;28;20048;-49
2021/08/03 03:32:06;;;;;;;5.33;2.10;;;11.00;99.90;;;;;;5087326;28;20496;-48
2021/08/03 03:34:39;;;;;;;;;;;11.10;99.90;;;;;;5087780;28;20044;-49
2021/08/03 03:37:09;;;;;;;2.08;1.77;;;11.10;99.90;;;;;;5087236;28;19920;-45
2021/08/03 03:39:39;;;;;;;4.15;2.30;;;11.10;99.90;;;;;;5086572;28;20487;-47
2021/08/03 03:42:06;;;;;;;3.22;2.50;;;11.20;99.90;;;;;;5087868;28;20100;-46
2021/08/03 03:44:37;;;;;;;5.88;2.75;;;11.30;99.90;;;;;;5070519;28;20496;-47
2021/08/03 03:47:16;;;;;;;5.57;2.67;;;11.40;99.90;;;;;;5086887;28;20113;-46
2021/08/03 03:49:45;;;;;;;3.80;2.88;;;11.30;99.90;;;;;;5086885;28;20052;-45
2021/08/03 03:52:21;;;;;;;3.20;2.67;;;11.30;99.90;;;;;;5087181;28;20715;-45
2021/08/03 03:54:53;;;;;;;4.28;2.95;;;11.30;99.90;;;;;;5086791;28;20055;-47
2021/08/03 03:57:23;;;;;;;4.63;2.90;;;11.30;99.90;;;;;;5088778;28;20079;-46
2021/08/03 03:59:56;;;;;;;4.90;2.78;;;11.40;99.90;;;;;;5103958;28;20490;-45
2021/08/03 04:02:24;;;;;;;4.57;2.80;;;11.50;99.90;;;;;;5071357;28;20056;-46
2021/08/03 04:04:51;;;;;;;6.07;2.67;;;11.40;99.90;;;;;;5087216;28;20052;-46
2021/08/03 04:07:17;;;;;;;3.03;2.60;;;11.50;99.90;;;;;;5088483;28;20059;-47
2021/08/03 04:09:45;;;;;;;5.18;3.13;;;11.50;99.90;;;;;;5088798;28;20058;-46
2021/08/03 04:12:14;;;;;;;3.92;3.15;;;11.50;99.90;;;;;;5089340;28;20048;-46
2021/08/03 04:14:43;;;;;;;4.28;2.45;;;11.50;99.90;;;;;;5088842;28;20134;-49
2021/08/03 04:17:11;;;;;;;2.80;2.17;;;11.50;99.90;;;;;;5087038;28;20138;-48
2021/08/03 04:19:41;;;;;;;3.67;2.72;;;11.50;99.90;;;;;;5088504;28;20067;-46
2021/08/03 04:22:09;;;;;;;4.15;2.60;;;11.50;99.90;;;;;;5088547;28;20044;-46
2021/08/03 04:24:38;;;;;;;5.35;2.65;;;11.50;99.90;;;;;;5088127;28;20448;-46
2021/08/03 04:27:05;;;;;;;4.10;2.40;;;11.50;99.90;;;;;;5086487;28;20424;-48
2021/08/03 04:29:33;;;;;;;3.45;2.33;;;11.50;99.90;;;;;;5090655;28;20048;-46
2021/08/03 04:32:02;;;;;;;4.53;2.50;;;11.50;99.90;;;;;;5087859;28;20044;-47
2021/08/03 04:34:31;;;;;;;3.30;2.63;;;11.60;99.90;;;;;;5087325;28;20052;-50
2021/08/03 04:37:01;;;;;;;6.60;2.80;;;11.60;99.90;;;;;;5088481;28;20089;-48
2021/08/03 04:39:28;;;;;;;5.32;3.03;;;11.60;99.90;;;;;;5087888;28;20097;-46
2021/08/03 04:41:57;;;;;;;4.47;2.67;;;11.70;99.90;;;;;;5087249;28;20587;-48
2021/08/03 04:44:23;;;;;;;4.75;2.40;;;11.70;99.90;;;;;;5092070;28;20044;-48
2021/08/03 04:46:49;;;;;;;4.78;2.83;;;11.70;99.90;;;;;;5104284;28;20059;-48
2021/08/03 04:49:18;;;;;;;4.18;2.80;;;11.80;99.90;;;;;;5090570;28;20057;-48
2021/08/03 04:51:47;;;;;;;4.93;3.08;;;11.90;99.90;;;;;;5107573;28;20059;-48
2021/08/03 04:54:17;;;;;;;2.65;2.08;;;11.90;99.90;;;;;;5090113;28;20097;-47
2021/08/03 04:56:46;;;;;;;3.00;2.15;;;11.90;99.90;;;;;;5108072;28;20047;-47
2021/08/03 04:59:12;;;;;;;4.20;2.50;;;12.00;99.90;;;;;;5113024;28;20426;-49
2021/08/03 05:02:01;;;;;;;5.18;2.55;;;12.00;99.90;;;;;;5090630;28;20051;-49
2021/08/03 05:04:36;;;;;;;4.15;2.85;;;12.10;99.90;;;;;;5083294;28;20047;-49
2021/08/03 05:07:04;;;;;;;3.50;2.92;;;12.20;99.90;;;;;;5108136;28;20051;-47
2021/08/03 05:09:31;;;;;;;3.47;2.70;;;12.30;99.90;;;;;;5108401;28;20400;-50
2021/08/03 05:12:00;;;;;;;4.90;2.95;;;12.50;99.90;;;;;;5108141;28;20092;-49
2021/08/03 05:14:26;;;;;;;5.28;3.17;;;12.60;99.90;;;;;;5086971;28;20072;-50
2021/08/03 05:16:52;;;;;;;5.60;3.03;;;12.90;99.90;;;;;;5083063;28;20054;-48
2021/08/03 05:19:18;;;;;;;4.75;2.75;;;13.00;99.90;;;;;;5104983;28;20116;-50
2021/08/03 05:21:47;;;;;;;3.65;2.80;;;13.10;99.90;;;;;;5106625;28;20054;-49
2021/08/03 05:24:13;;;;;;;6.47;3.55;;;13.20;99.90;;;;;;5100546;28;20908;-50
2021/08/03 05:26:39;;;;;;;5.13;2.80;;;13.40;99.90;;;;;;5088318;28;20047;-50
2021/08/03 05:29:05;;;;;;;4.25;2.65;;;13.40;99.90;;;;;;5102414;28;20050;-50
2021/08/03 05:31:32;;;;;;;4.70;3.30;;;13.50;99.90;;;;;;5106560;28;20052;-50
2021/08/03 05:34:01;;;;;;;6.45;2.60;;;13.70;99.90;;;;;;5104321;28;20050;-51
2021/08/03 05:36:28;;;;;;;4.32;2.72;;;13.70;99.90;;;;;;5105217;28;20476;-50
2021/08/03 05:38:54;;;;;;;4.10;2.80;;;13.80;99.90;;;;;;5088434;28;20143;-49
2021/08/03 05:41:20;;;;;;;5.50;2.60;;;13.80;99.90;;;;;;5106160;28;20083;-53
2021/08/03 05:43:46;;;;;;;5.40;3.03;;;13.90;99.90;;;;;;5088133;28;20052;-50
2021/08/03 05:46:12;;;;;;;5.70;2.72;;;13.90;99.90;;;;;;5104217;28;20148;-52
2021/08/03 05:48:39;;;;;;;4.28;2.38;;;14.00;99.90;;;;;;5086578;28;20063;-50
2021/08/03 05:51:05;;;;;;;5.00;2.97;;;14.20;99.90;;;;;;5105644;28;20060;-51
2021/08/03 05:53:31;;;;;;;3.92;2.58;;;14.40;99.90;;;;;;5107880;28;20043;-52
2021/08/03 05:55:57;;;;;;;3.70;2.20;;;14.70;99.90;;;;;;5103023;28;20055;-49
2021/08/03 05:58:24;;;;;;;5.22;2.35;;;15.00;99.90;;;;;;5109592;28;20061;-49
2021/08/03 06:00:50;;;;;;;3.47;2.17;;;15.10;99.90;;;;;;5106580;28;20061;-53
2021/08/03 06:03:16;;;;;;;3.97;2.30;;;15.20;99.90;;;;;;5090855;28;20560;-51
2021/08/03 06:05:43;;;;;;;4.45;1.98;;;15.20;99.90;;;;;;5109860;28;20124;-49
2021/08/03 06:08:14;;;;;;;4.63;2.35;;;15.30;99.90;;;;;;5109478;28;20409;-50
2021/08/03 06:10:41;;;;;;;3.53;2.10;;;15.40;99.90;;;;;;5071904;28;20086;-53
2021/08/03 06:13:12;;;;;;;4.05;2.00;;;15.40;99.90;;;;;;5108942;28;20132;-52
2021/08/03 06:16:24;;;;;;;3.58;2.00;;;15.30;99.90;;;;;;5115659;28;20043;-50
2021/08/03 06:19:18;;;;;;;3.55;2.20;;;15.30;99.90;;;;;;5044224;28;20126;-50
2021/08/03 06:21:46;;;;;;;4.82;3.40;;;15.50;99.90;;;;;;5011270;28;20044;-48
2021/08/03 06:24:16;;;;;;;5.22;4.13;;;15.70;99.90;;;;;;5047518;28;20045;-49
2021/08/03 06:26:46;;;;;;;6.25;2.83;;;15.90;99.90;;;;;;5025740;28;20056;-51
2021/08/03 06:29:13;;;;;;;3.72;1.70;;;16.20;99.90;;;;;;5045791;28;21217;-51
2021/08/03 06:31:41;;;;;;;9.77;6.10;;;16.40;99.90;;;;;;5018103;28;20051;-51
2021/08/03 06:34:07;;;;;;;8.13;6.30;;;16.80;99.90;;;;;;5027387;28;20382;-49
2021/08/03 06:36:45;;;;;;;3.95;1.70;;;16.90;99.90;;;;;;5043839;28;20515;-49
2021/08/03 06:39:14;;;;;;;4.32;2.10;;;17.10;99.90;;;;;;5042869;28;20049;-52
2021/08/03 06:41:41;;;;;;;5.97;1.70;;;17.30;99.90;;;;;;5043473;28;20053;-50
2021/08/03 06:44:21;;;;;;;4.03;1.70;;;17.50;99.90;;;;;;5045374;28;20048;-49
2021/08/03 06:46:53;;;;;;;28.35;25.30;;;17.80;99.90;;;;;;5042827;28;20057;-51
2021/08/03 06:49:21;;;;;;;14.38;12.60;;;17.80;99.90;;;;;;5042349;28;20464;-49
2021/08/03 06:51:51;;;;;;;3.47;1.35;;;18.10;99.90;;;;;;5015198;28;20045;-51
2021/08/03 06:54:20;;;;;;;4.05;2.35;;;18.50;99.90;;;;;;5046859;28;20052;-48
2021/08/03 06:56:53;;;;;;;6.25;3.40;;;18.60;99.90;;;;;;5098416;28;20082;-48
2021/08/03 06:59:27;;;;;;;13.80;12.32;;;18.50;99.90;;;;;;5112865;28;20051;-51
2021/08/03 07:02:00;;;;;;;5.57;2.28;;;18.40;99.90;;;;;;5107253;28;20043;-49
2021/08/03 07:04:42;;;;;;;5.40;1.25;;;18.70;99.90;;;;;;5114503;28;20051;-50
2021/08/03 07:07:10;;;;;;;2.33;0.60;;;19.10;99.90;;;;;;5108326;28;20044;-49
2021/08/03 07:09:43;;;;;;;2.00;0.60;;;19.30;99.90;;;;;;5109147;28;20071;-49
2021/08/03 07:12:11;;;;;;;4.65;2.30;;;19.80;99.90;;;;;;5108115;28;20043;-54
2021/08/03 07:14:38;;;;;;;2.65;0.93;;;19.80;99.90;;;;;;5108387;28;20047;-50
2021/08/03 07:17:06;;;;;;;4.25;2.20;;;19.90;99.90;;;;;;5109518;28;20066;-48
2021/08/03 07:19:33;;;;;;;8.65;6.70;;;19.90;99.90;;;;;;5106666;28;20047;-52
2021/08/03 07:21:59;;;;;;;12.45;10.60;;;20.00;99.90;;;;;;5108473;28;20075;-50
2021/08/03 07:24:27;;;;;;;6.97;4.03;;;20.10;99.90;;;;;;5109167;28;20052;-49
2021/08/03 07:26:54;;;;;;;3.28;1.67;;;20.10;99.90;;;;;;5108907;28;20058;-51
2021/08/03 07:29:20;;;;;;;2.85;1.30;;;20.30;99.90;;;;;;5109481;28;20054;-51
2021/08/03 07:31:47;;;;;;;2.83;1.80;;;20.20;99.90;;;;;;5108727;28;20429;-49
2021/08/03 07:34:13;;;;;;;2.38;1.17;;;20.30;99.90;;;;;;5106989;28;20052;-49
2021/08/03 07:36:40;;;;;;;3.78;1.27;;;20.20;99.90;;;;;;5109721;28;20117;-49
2021/08/03 07:39:08;;;;;;;1.50;0.80;;;20.10;99.90;;;;;;5109678;28;20043;-48
2021/08/03 07:41:35;;;;;;;3.20;1.52;;;20.40;99.90;;;;;;5079404;28;20117;-51
2021/08/03 07:44:02;;;;;;;4.47;3.05;;;20.50;99.90;;;;;;5108387;28;20138;-51
2021/08/03 07:46:29;;;;;;;2.35;1.30;;;20.50;99.90;;;;;;5107114;28;20047;-52
2021/08/03 07:48:57;;;;;;;3.65;1.10;;;20.70;99.90;;;;;;5090665;28;20108;-52
2021/08/03 07:51:25;;;;;;;3.28;1.05;;;21.00;99.90;;;;;;5108679;28;20047;-52
2021/08/03 07:53:51;;;;;;;3.50;2.10;;;20.90;99.70;;;;;;5107883;28;20482;-50
2021/08/03 07:56:20;;;;;;;3.70;0.80;;;21.20;99.90;;;;;;5114725;28;20412;-53
2021/08/03 07:58:47;;;;;;;4.07;1.13;;;20.90;97.40;;;;;;5116519;28;20035;-47
2021/08/03 08:01:14;;;;;;;2.60;0.73;;;21.10;94.30;;;;;;5108055;28;20055;-52
2021/08/03 08:03:40;;;;;;;3.03;0.90;;;21.40;92.60;;;;;;5104860;28;20051;-50
2021/08/03 08:06:06;;;;;;;1.88;0.75;;;21.60;85.50;;;;;;5108459;28;20044;-50
2021/08/03 08:08:33;;;;;;;2.38;0.63;;;21.70;82.70;;;;;;5108490;28;20062;-50
2021/08/03 08:10:59;;;;;;;2.90;0.60;;;21.70;79.40;;;;;;5108254;28;20050;-53
2021/08/03 08:13:26;;;;;;;1.45;0.70;;;21.90;78.20;;;;;;5109230;28;20046;-52
2021/08/03 08:15:52;;;;;;;2.03;0.60;;;22.20;78.60;;;;;;5106943;28;20044;-53
2021/08/03 08:18:18;;;;;;;2.38;0.90;;;22.20;76.80;;;;;;5085242;28;20048;-53
2021/08/03 08:20:45;;;;;;;4.15;0.80;;;22.20;70.10;;;;;;5086974;28;20438;-54
2021/08/03 08:23:14;;;;;;;3.85;1.92;;;22.60;70.90;;;;;;5106929;28;20553;-54
2021/08/03 08:25:41;;;;;;;3.05;0.70;;;23.10;72.60;;;;;;5106559;28;20047;-55
2021/08/03 08:28:07;;;;;;;2.35;0.70;;;23.60;71.50;;;;;;5107239;28;20048;-51
2021/08/03 08:30:35;;;;;;;2.63;0.80;;;23.40;69.50;;;;;;5085739;28;20392;-55
2021/08/03 08:33:03;;;;;;;2.35;0.90;;;23.60;66.70;;;;;;5105384;28;20055;-53
2021/08/03 08:35:36;;;;;;;2.00;0.70;;;23.70;58.80;;;;;;5072482;28;20112;-54
2021/08/03 08:38:05;;;;;;;2.63;0.88;;;23.90;63.20;;;;;;5105873;28;20042;-52
2021/08/03 08:40:35;;;;;;;1.58;0.47;;;24.00;63.80;;;;;;5107811;28;20407;-52
2021/08/03 08:43:02;;;;;;;3.70;0.93;;;24.20;59.70;;;;;;5105347;28;20066;-52
2021/08/03 08:45:30;;;;;;;2.30;0.77;;;24.40;59.20;;;;;;5087592;28;20051;-53
2021/08/03 08:47:57;;;;;;;1.85;0.47;;;24.80;59.70;;;;;;5086694;28;20100;-51
2021/08/03 08:50:26;;;;;;;2.57;0.70;;;25.10;57.80;;;;;;5106213;28;20047;-53
2021/08/03 08:52:54;;;;;;;2.80;0.60;;;25.00;58.20;;;;;;5105279;28;20301;-48
2021/08/03 08:55:22;;;;;;;2.83;0.93;;;24.30;56.90;;;;;;5104404;28;20127;-52
2021/08/03 08:57:50;;;;;;;2.55;1.00;;;23.90;57.30;;;;;;5104130;28;20073;-50
2021/08/03 09:00:19;;;;;;;1.55;0.65;;;23.70;57.70;;;;;;5105401;28;20520;-50
2021/08/03 09:02:47;;;;;;;2.08;0.80;;;24.10;58.90;;;;;;5104501;28;20092;-52
2021/08/03 09:05:17;;;;;;;1.45;0.80;;;23.80;59.30;;;;;;5105860;28;20753;-51
2021/08/03 09:07:51;;;;;;;2.05;0.88;;;23.60;57.70;;;;;;5101278;28;20495;-51
2021/08/03 09:10:28;;;;;;;2.67;0.70;;;23.10;56.00;;;;;;5104493;28;20129;-50
2021/08/03 09:12:59;;;;;;;2.95;0.80;;;22.90;60.40;;;;;;5101106;28;20047;-49
2021/08/03 09:15:25;;;;;;;2.97;0.80;;;22.60;60.00;;;;;;5105243;28;20055;-48
2021/08/03 09:17:52;;;;;;;2.47;0.95;;;22.40;59.20;;;;;;5104428;28;20082;-50
2021/08/03 09:20:18;;;;;;;3.67;0.95;;;22.60;58.70;;;;;;5103087;28;20093;-49
2021/08/03 09:22:49;;;;;;;2.97;1.08;;;23.20;58.80;;;;;;5089977;28;20078;-49
2021/08/03 09:25:17;;;;;;;;;;;23.40;59.00;;;;;;5067894;28;20063;-49
2021/08/03 09:27:48;;;;;;;2.38;1.00;;;23.10;56.90;;;;;;5086845;28;19928;-49
2021/08/03 09:30:17;;;;;;;2.05;0.95;;;23.10;59.30;;;;;;5104725;28;20138;-50
2021/08/03 09:32:48;;;;;;;2.97;1.10;;;22.70;59.80;;;;;;5097428;28;20047;-49
2021/08/03 09:35:25;;;;;;;2.13;0.80;;;22.50;62.10;;;;;;5111281;28;20093;-49
2021/08/03 09:37:53;;;;;;;3.28;1.23;;;22.20;63.70;;;;;;5108500;28;20052;-49
2021/08/03 09:40:25;;;;;;;1.65;0.80;;;22.00;65.30;;;;;;5107955;28;20046;-51
2021/08/03 09:43:11;;;;;;;2.45;1.15;;;21.90;65.40;;;;;;5107747;28;20063;-49
2021/08/03 09:45:44;;;;;;;1.98;0.93;;;21.70;65.20;;;;;;5107604;28;20051;-50
2021/08/03 09:48:15;;;;;;;1.58;0.90;;;21.60;67.40;;;;;;5108080;28;20534;-48
2021/08/03 09:50:51;;;;;;;3.67;0.90;;;21.40;66.70;;;;;;5107901;28;20190;-49
2021/08/03 09:53:37;;;;;;;1.50;0.70;;;21.30;67.60;;;;;;5090149;28;20523;-50
2021/08/03 09:56:09;;;;;;;3.08;0.90;;;21.30;70.60;;;;;;5081827;28;20534;-50
2021/08/03 09:59:03;;;;;;;2.60;1.08;;;21.40;69.20;;;;;;5106956;28;20043;-52
2021/08/03 10:01:41;;;;;;;2.85;0.88;;;21.50;69.50;;;;;;5104511;28;20311;-49
2021/08/03 10:04:12;;;;;;;1.80;0.80;;;21.50;69.00;;;;;;5107301;28;20066;-50
2021/08/03 10:06:42;;;;;;;2.55;0.93;;;21.40;68.90;;;;;;5086900;28;20058;-48
2021/08/03 10:09:11;;;;;;;2.15;1.00;;;21.50;69.10;;;;;;5108170;27;20082;-50
2021/08/03 10:11:38;;;;;;;2.80;0.93;;;21.50;68.70;;;;;;5110465;28;20051;-47
2021/08/03 10:14:05;;;;;;;2.30;0.80;;;22.00;67.80;;;;;;5105575;28;20073;-49
2021/08/03 10:16:32;;;;;;;3.10;1.00;;;22.80;67.60;;;;;;5106288;28;20108;-51
2021/08/03 10:19:00;;;;;;;3.22;1.25;;;23.90;64.90;;;;;;5105651;28;20043;-50
2021/08/03 10:21:35;;;;;;;2.10;0.88;;;24.60;61.10;;;;;;5086037;28;20035;-47
2021/08/03 10:24:17;;;;;;;1.50;0.75;;;25.40;57.40;;;;;;5103636;28;20067;-50
2021/08/03 10:27:05;;;;;;;1.83;0.80;;;25.70;52.50;;;;;;5103370;28;20130;-51
2021/08/03 10:29:33;;;;;;;1.83;0.80;;;25.20;52.30;;;;;;5084681;28;20054;-49
2021/08/03 10:32:00;;;;;;;1.38;0.60;;;24.80;55.10;;;;;;5089248;28;20071;-48
2021/08/03 10:34:50;;;;;;;2.47;0.75;;;24.10;55.40;;;;;;5107592;28;20352;-48
2021/08/03 10:37:16;;;;;;;3.08;1.33;;;23.70;53.90;;;;;;5107164;28;20518;-51
2021/08/03 10:39:53;;;;;;;3.55;1.10;;;23.70;54.80;;;;;;5107622;28;20046;-48
2021/08/03 10:42:21;;;;;;;3.78;1.10;;;24.30;54.30;;;;;;5107003;28;20048;-50
2021/08/03 10:44:52;;;;;;;5.72;1.20;;;24.40;52.60;;;;;;5106391;28;20047;-50
2021/08/03 10:47:33;;;;;;;2.97;0.82;;;25.10;52.70;;;;;;5107276;27;20059;-50
2021/08/03 10:50:00;;;;;;;1.85;0.73;;;26.10;52.50;;;;;;5095893;28;20054;-49
2021/08/03 10:52:44;;;;;;;2.60;1.08;;;26.40;51.10;;;;;;5094916;28;20062;-47
2021/08/03 10:55:35;;;;;;;1.83;0.73;;;26.00;46.90;;;;;;5104228;28;20050;-50
2021/08/03 10:58:12;;;;;;;2.35;0.90;;;25.80;47.10;;;;;;5106103;28;20787;-51
2021/08/03 11:00:57;;;;;;;2.53;1.20;;;25.40;48.90;;;;;;5104971;28;20044;-49
2021/08/03 11:03:33;;;;;;;3.28;0.85;;;24.90;48.70;;;;;;5112082;28;20133;-51
2021/08/03 11:06:10;;;;;;;2.65;0.88;;;24.50;50.40;;;;;;5107346;28;20035;-50
2021/08/03 11:08:40;;;;;;;2.67;0.80;;;24.30;50.30;;;;;;5112151;28;20063;-49
2021/08/03 11:11:18;;;;;;;1.80;0.90;;;24.00;51.60;;;;;;5107037;28;20765;-48
2021/08/03 11:13:50;;;;;;;2.65;1.10;;;23.90;51.40;;;;;;5107589;28;20677;-47
2021/08/03 11:16:20;;;;;;;1.85;0.85;;;23.50;52.50;;;;;;5088850;28;20051;-49
2021/08/03 11:18:51;;;;;;;2.47;0.90;;;23.80;49.20;;;;;;5087500;28;20047;-49
2021/08/03 11:21:19;;;;;;;3.30;0.93;;;24.40;50.50;;;;;;5107301;28;20047;-49
2021/08/03 11:24:04;;;;;;;1.42;0.75;;;24.70;51.10;;;;;;5108730;28;20089;-53
2021/08/03 11:26:51;;;;;;;3.13;0.95;;;24.50;49.90;;;;;;5104310;28;20052;-48
2021/08/03 11:29:25;;;;;;;1.95;1.00;;;24.80;49.30;;;;;;5088943;28;20403;-49
2021/08/03 11:32:00;;;;;;;1.83;0.85;;;24.70;48.80;;;;;;5106959;28;21741;-48
2021/08/03 11:34:35;;;;;;;2.25;0.77;;;23.80;50.00;;;;;;5105313;28;20044;-52
2021/08/03 11:37:15;;;;;;;2.22;0.90;;;23.70;53.10;;;;;;5106429;28;20067;-48
2021/08/03 11:39:49;;;;;;;2.50;0.80;;;23.70;51.70;;;;;;5112162;28;20050;-50
2021/08/03 11:42:39;;;;;;;2.67;1.05;;;23.30;53.00;;;;;;5104424;28;20079;-51
2021/08/03 11:45:17;;;;;;;2.20;1.02;;;23.60;52.50;;;;;;5107146;28;20104;-48
2021/08/03 11:47:49;;;;;;;3.40;0.98;;;23.60;53.20;;;;;;5105672;28;20092;-48
2021/08/03 11:50:29;;;;;;;3.22;0.93;;;23.30;53.30;;;;;;5109336;28;20040;-50
2021/08/03 11:53:17;;;;;;;2.30;1.00;;;23.30;52.80;;;;;;5067712;28;20052;-53
2021/08/03 11:55:51;;;;;;;2.35;0.90;;;23.40;52.50;;;;;;5090714;28;20040;-49
2021/08/03 11:58:25;;;;;;;1.60;0.93;;;23.70;54.90;;;;;;5110331;28;20419;-50
2021/08/03 12:00:57;;;;;;;2.45;0.90;;;23.70;54.20;;;;;;5088718;28;20052;-51
2021/08/03 12:03:32;;;;;;;3.30;1.10;;;23.60;55.10;;;;;;5108106;28;20039;-52
2021/08/03 12:06:03;;;;;;;2.20;0.98;;;23.70;54.80;;;;;;5104345;28;20044;-50
2021/08/03 12:08:37;;;;;;;3.50;1.13;;;24.20;54.20;;;;;;5072171;28;20054;-48
2021/08/03 12:11:04;;;;;;;3.15;1.10;;;24.30;53.60;;;;;;5105254;28;20868;-47
2021/08/03 12:13:36;;;;;;;3.67;1.67;;;24.50;54.30;;;;;;5097572;28;20074;-56
2021/08/03 12:16:04;;;;;;;3.00;1.77;;;24.40;52.20;;;;;;5096747;28;20120;-57
2021/08/03 12:18:38;;;;;;;3.30;1.20;;;24.30;51.90;;;;;;5105457;28;20047;-56
2021/08/03 12:21:08;;;;;;;2.88;1.02;;;23.80;52.50;;;;;;5089175;28;20051;-58
2021/08/03 12:23:36;;;;;;;3.38;1.40;;;24.10;52.80;;;;;;5105579;28;20128;-58
2021/08/03 12:26:14;;;;;;;1.80;1.08;;;25.10;53.50;;;;;;5106593;28;20043;-57
2021/08/03 12:28:52;;;;;;;3.08;1.33;;;25.10;50.70;;;;;;5087034;28;20040;-55
2021/08/03 12:31:38;;;;;;;2.95;1.33;;;25.50;49.60;;;;;;5087959;28;20623;-58
2021/08/03 12:34:10;;;;;;;4.28;1.50;;;26.50;48.50;;;;;;5100849;28;20131;-59
2021/08/03 12:36:45;;;;;;;2.35;0.95;;;27.20;46.70;;;;;;5104223;28;20078;-58
2021/08/03 12:39:20;;;;;;;3.05;2.03;;;27.10;44.90;;;;;;5088342;28;20047;-57
2021/08/03 12:42:10;;;;;;;5.55;4.13;;;26.70;45.30;;;;;;5103718;28;20104;-55
2021/08/03 12:44:40;;;;;;;2.58;1.00;;;26.40;44.50;;;;;;5066323;28;20052;-60
2021/08/03 12:47:12;;;;;;;2.42;1.45;;;26.10;45.90;;;;;;5098318;28;20051;-54
2021/08/03 12:49:40;;;;;;;2.90;1.90;;;25.90;44.40;;;;;;5095261;27;20315;-59
2021/08/03 12:52:12;;;;;;;3.58;1.58;;;26.00;45.60;;;;;;5107532;27;20048;-58
2021/08/03 12:54:41;;;;;;;3.70;1.10;;;25.70;47.20;;;;;;5101775;28;20062;-59
2021/08/03 12:57:10;;;;;;;4.97;2.60;;;25.30;45.80;;;;;;5103470;28;20137;-60
2021/08/03 12:59:44;;;;;;;27.45;24.83;;;25.10;47.70;;;;;;5102800;28;20066;-58
2021/08/03 13:02:15;;;;;;;5.97;2.45;;;25.10;46.90;;;;;;5102342;28;20130;-59
2021/08/03 13:04:43;;;;;;;8.35;5.07;;;25.00;47.70;;;;;;5105043;28;20054;-55
2021/08/03 13:07:11;;;;;;;4.00;1.92;;;24.60;49.60;;;;;;5107038;28;21015;-59
2021/08/03 13:09:38;;;;;;;2.95;0.95;;;24.40;49.40;;;;;;5103904;28;20135;-61
2021/08/03 13:12:07;;;;;;;2.42;1.15;;;24.00;49.20;;;;;;5102837;28;20047;-55